Time;durP1;ratioP1;P1;durP2;ratioP2;P2;SDS_P1;SDS_P2;PMS_P1;PMS_P2;Temp;Humidity;BMP_temperature;BMP_pressure;BME280_temperature;BME280_humidity;BME280_pressure;Samples;Min_cycle;Max_cycle;Signal;HPM_P1;HPM_P2
2022/07/14 00:00:13;;;;;;;16.17;3.47;;;;;;;18.64;61.45;100824.22;10244721;28;20051;-81
2022/07/14 00:05:18;;;;;;;21.40;4.40;;;;;;;18.66;61.26;100814.88;10242326;28;20058;-82
2022/07/14 00:10:21;;;;;;;18.55;4.00;;;;;;;18.35;61.16;100804.59;10243601;28;20051;-82
2022/07/14 00:15:24;;;;;;;16.73;4.15;;;;;;;18.36;61.34;100798.13;10243727;28;20066;-82
2022/07/14 00:20:28;;;;;;;14.52;3.50;;;;;;;18.36;61.17;100817.16;10231323;28;20047;-80
2022/07/14 00:25:31;;;;;;;18.25;4.30;;;;;;;18.32;60.93;100813.09;10246476;28;20149;-80
2022/07/14 00:30:34;;;;;;;13.40;3.72;;;;;;;18.26;60.99;100807.44;10271151;28;20057;-82
2022/07/14 00:35:38;;;;;;;16.02;3.83;;;;;;;18.16;61.26;100823.91;10209140;28;20081;-82
2022/07/14 00:40:41;;;;;;;22.75;3.92;;;;;;;18.08;60.98;100816.56;10225377;28;20047;-82
2022/07/14 00:45:45;;;;;;;16.00;3.50;;;;;;;17.95;60.94;100801.69;10237847;28;20051;-81
2022/07/14 00:50:49;;;;;;;18.05;3.40;;;;;;;17.88;60.49;100806.91;10224946;28;20047;-82
2022/07/14 00:55:52;;;;;;;17.30;3.60;;;;;;;17.71;60.90;100824.97;10254210;28;21312;-82
2022/07/14 01:00:55;;;;;;;16.80;3.60;;;;;;;17.78;60.86;100819.78;10216757;28;20055;-82
2022/07/14 01:05:59;;;;;;;16.13;3.75;;;;;;;17.72;61.14;100817.69;10246501;28;20054;-82
2022/07/14 01:11:02;;;;;;;28.27;5.90;;;;;;;17.72;60.98;100821.28;10244199;28;20051;-82
2022/07/14 01:16:06;;;;;;;15.27;3.80;;;;;;;17.68;60.97;100811.72;10240919;28;20066;-81
2022/07/14 01:21:10;;;;;;;18.52;3.22;;;;;;;17.68;61.17;100812.56;10253389;28;20062;-82
2022/07/14 01:26:13;;;;;;;18.17;3.38;;;;;;;17.60;61.58;100812.50;10228995;28;20046;-82
2022/07/14 01:31:16;;;;;;;13.02;3.35;;;;;;;17.30;62.30;100813.84;10241804;28;20073;-81
2022/07/14 01:36:21;;;;;;;19.38;3.60;;;;;;;17.31;62.22;100829.13;10230710;28;20396;-82
2022/07/14 01:41:24;;;;;;;13.70;3.95;;;;;;;17.32;62.34;100828.09;10254438;28;20055;-82
2022/07/14 01:46:27;;;;;;;16.92;3.63;;;;;;;17.21;62.61;100826.50;10237497;28;20518;-80
2022/07/14 01:51:32;;;;;;;15.43;3.25;;;;;;;17.30;62.63;100842.84;10239618;28;20452;-80
2022/07/14 01:56:40;;;;;;;14.43;3.15;;;;;;;17.42;61.99;100838.88;10222560;28;20159;-83
2022/07/14 02:01:46;;;;;;;27.23;3.25;;;;;;;17.50;61.84;100832.63;10232724;28;20054;-82
2022/07/14 02:06:52;;;;;;;15.68;3.25;;;;;;;17.53;61.85;100840.50;10244038;28;20122;-82
2022/07/14 02:12:12;;;;;;;19.33;4.10;;;;;;;17.53;61.43;100833.19;10253405;28;20047;-82
2022/07/14 02:17:17;;;;;;;14.93;3.35;;;;;;;17.51;61.64;100826.22;10233530;28;20043;-82
2022/07/14 02:22:21;;;;;;;19.38;3.45;;;;;;;17.47;61.80;100837.41;10224379;28;20051;-81
2022/07/14 02:27:24;;;;;;;19.42;4.57;;;;;;;17.42;61.80;100831.59;10241855;28;20061;-81
2022/07/14 02:32:29;;;;;;;16.98;4.00;;;;;;;17.49;61.46;100834.50;10245421;28;20059;-82
2022/07/14 02:37:33;;;;;;;21.65;4.68;;;;;;;17.42;61.65;100828.88;10263638;28;20062;-81
2022/07/14 02:42:39;;;;;;;16.73;3.33;;;;;;;17.41;61.52;100826.31;10226155;28;20542;-82
2022/07/14 02:47:42;;;;;;;21.63;4.03;;;;;;;17.30;61.73;100826.56;10203662;28;20134;-82
2022/07/14 02:52:47;;;;;;;21.75;4.72;;;;;;;17.29;61.75;100838.44;10246663;28;20046;-82
2022/07/14 02:57:50;;;;;;;19.05;3.83;;;;;;;17.30;61.91;100818.41;10222362;28;20103;-82
2022/07/14 03:02:54;;;;;;;13.90;3.53;;;;;;;17.30;61.34;100816.53;10238204;28;20062;-80
2022/07/14 03:07:58;;;;;;;15.38;3.03;;;;;;;17.22;61.63;100819.19;10240058;28;20126;-80
2022/07/14 03:13:01;;;;;;;17.60;3.17;;;;;;;17.22;61.76;100821.91;10264701;28;20062;-80
2022/07/14 03:18:04;;;;;;;15.13;3.30;;;;;;;17.17;61.80;100829.69;10267242;28;20042;-80
2022/07/14 03:23:13;;;;;;;13.35;2.42;;;;;;;17.11;62.17;100838.41;10270291;28;20075;-79
2022/07/14 03:28:16;;;;;;;7.72;2.28;;;;;;;17.21;62.12;100834.63;10266998;28;20054;-79
2022/07/14 03:33:20;;;;;;;12.77;2.90;;;;;;;17.47;61.33;100839.28;10271534;28;20074;-78
2022/07/14 03:38:24;;;;;;;16.13;3.33;;;;;;;17.62;59.83;100828.66;10288104;28;20129;-80
2022/07/14 03:43:38;;;;;;;17.40;3.53;;;;;;;17.56;60.25;100824.72;10269869;28;20137;-80
2022/07/14 03:48:43;;;;;;;12.98;3.05;;;;;;;17.60;60.05;100825.25;10267458;28;20047;-79
2022/07/14 03:53:48;;;;;;;12.07;2.80;;;;;;;17.66;59.63;100821.88;10274756;28;20082;-79
2022/07/14 03:58:51;;;;;;;17.48;3.10;;;;;;;17.66;59.53;100822.75;10275841;28;20061;-80
2022/07/14 04:03:57;;;;;;;11.68;2.63;;;;;;;17.67;59.59;100819.03;10269093;28;20046;-80
2022/07/14 04:09:02;;;;;;;13.10;2.88;;;;;;;17.90;59.04;100822.03;10273364;28;20051;-80
2022/07/14 04:14:07;;;;;;;13.75;2.42;;;;;;;17.87;58.85;100827.78;10272302;28;20111;-80
2022/07/14 04:19:10;;;;;;;16.58;3.60;;;;;;;17.95;58.46;100821.56;10264995;28;20047;-80
2022/07/14 04:24:18;;;;;;;12.30;2.58;;;;;;;17.92;58.06;100838.19;10248072;28;21246;-80
2022/07/14 04:29:21;;;;;;;12.25;2.70;;;;;;;17.99;57.58;100843.84;10266811;28;20047;-80
2022/07/14 04:34:24;;;;;;;10.63;2.55;;;;;;;17.91;58.11;100834.63;10262013;28;20424;-80
2022/07/14 04:39:29;;;;;;;13.93;2.67;;;;;;;17.98;57.24;100834.84;10264718;28;20055;-80
2022/07/14 04:44:32;;;;;;;16.63;2.85;;;;;;;17.95;57.18;100832.44;10257299;28;20059;-81
2022/07/14 04:54:59;;;;;;;9.85;2.22;;;;;;;17.97;56.69;100835.88;10257658;28;20050;-79
2022/07/14 05:00:11;;;;;;;12.15;3.10;;;;;;;18.10;56.31;100829.97;10233230;28;20066;-80
2022/07/14 05:05:15;;;;;;;14.57;2.90;;;;;;;18.01;55.88;100817.38;10241341;28;20058;-82
2022/07/14 05:10:20;;;;;;;9.13;2.70;;;;;;;17.98;55.94;100812.25;10231338;28;20058;-82
2022/07/14 05:15:24;;;;;;;10.23;2.67;;;;;;;18.17;55.87;100816.59;10252303;28;20050;-80
2022/07/14 05:20:29;;;;;;;9.75;2.75;;;;;;;18.38;55.32;100806.13;10223550;28;20066;-82
2022/07/14 05:25:33;;;;;;;12.68;3.45;;;;;;;18.29;55.32;100798.94;10226717;28;20054;-81
2022/07/14 05:30:37;;;;;;;12.75;3.63;;;;;;;18.09;55.58;100815.53;10226252;28;20438;-81
2022/07/14 05:35:40;;;;;;;13.40;3.78;;;;;;;18.21;55.29;100810.69;10226561;28;20054;-81
2022/07/14 05:40:45;;;;;;;14.52;3.53;;;;;;;17.99;55.59;100806.69;10229679;28;20042;-82
2022/07/14 05:45:47;;;;;;;9.90;3.60;;;;;;;17.89;55.98;100809.47;10244098;28;20074;-82
2022/07/14 05:50:50;;;;;;;16.95;4.60;;;;;;;17.78;56.53;100803.47;10221609;28;20063;-82
2022/07/14 05:55:55;;;;;;;15.52;4.43;;;;;;;17.86;56.50;100806.22;10210455;28;20606;-81
2022/07/14 06:00:58;;;;;;;17.45;4.57;;;;;;;17.95;56.21;100799.81;10226346;28;20059;-81
2022/07/14 06:06:01;;;;;;;14.27;4.53;;;;;;;17.87;56.32;100805.22;10226042;28;20046;-82
2022/07/14 06:11:06;;;;;;;12.55;4.72;;;;;;;17.59;57.02;100804.53;10234294;28;20047;-81
2022/07/14 06:16:10;;;;;;;12.38;4.45;;;;;;;17.95;57.03;100793.53;10221479;28;21510;-82
2022/07/14 06:21:14;;;;;;;13.77;4.35;;;;;;;18.34;56.36;100805.59;10225308;28;20512;-81
2022/07/14 06:26:18;;;;;;;9.38;3.83;;;;;;;18.57;54.60;100802.28;10233786;28;20059;-81
2022/07/14 06:31:21;;;;;;;10.05;3.63;;;;;;;18.47;54.14;100816.00;10213497;28;20202;-82
2022/07/14 06:36:25;;;;;;;11.50;4.35;;;;;;;18.81;53.80;100815.09;10244259;28;20554;-78
2022/07/14 06:41:29;;;;;;;17.70;5.47;;;;;;;19.43;52.65;100811.88;10229924;28;20050;-79
2022/07/14 06:46:32;;;;;;;14.25;3.63;;;;;;;19.81;51.71;100806.72;10232852;28;20065;-79
2022/07/14 06:51:35;;;;;;;15.13;5.75;;;;;;;19.55;51.31;100807.75;10230091;28;20063;-79
2022/07/14 06:56:39;;;;;;;14.38;4.80;;;;;;;18.49;52.61;100810.44;10260121;28;20050;-77
2022/07/14 07:01:42;;;;;;;11.40;2.78;;;;;;;19.11;51.70;100819.03;10248147;28;20102;-80
2022/07/14 07:06:45;;;;;;;10.10;2.50;;;;;;;20.27;50.03;100809.63;10239540;28;20043;-78
2022/07/14 07:11:50;;;;;;;11.93;2.72;;;;;;;20.51;47.43;100803.22;10231953;28;20066;-77
2022/07/14 07:16:53;;;;;;;6.50;1.88;;;;;;;20.45;47.89;100795.75;10223295;28;20062;-77
2022/07/14 07:21:57;;;;;;;6.97;2.13;;;;;;;20.56;47.76;100795.34;10235110;28;20102;-77
2022/07/14 07:27:01;;;;;;;7.00;2.22;;;;;;;21.09;46.48;100806.41;10250155;28;20138;-79
2022/07/14 07:32:04;;;;;;;8.40;1.88;;;;;;;22.84;42.44;100798.59;10244319;28;20094;-76
2022/07/14 07:37:07;;;;;;;7.63;1.90;;;;;;;25.29;38.23;100792.75;10236569;28;20563;-77
2022/07/14 07:42:29;;;;;;;5.20;1.85;;;;;;;26.88;34.62;100783.16;10232266;28;20713;-77
2022/07/14 07:47:32;;;;;;;6.45;1.65;;;;;;;28.78;32.75;100787.94;10220906;28;20098;-77
2022/07/14 07:52:35;;;;;;;9.73;1.63;;;;;;;29.98;30.57;100786.72;10232814;28;20501;-77
2022/07/14 07:57:40;;;;;;;6.45;1.73;;;;;;;29.22;31.65;100776.63;10228819;28;20122;-76
2022/07/14 08:02:48;;;;;;;6.47;1.50;;;;;;;28.47;31.18;100773.25;10216891;28;20051;-77
2022/07/14 08:07:52;;;;;;;7.05;1.55;;;;;;;23.89;37.09;100781.34;10231258;28;20208;-77
2022/07/14 08:12:56;;;;;;;8.50;2.28;;;;;;;22.39;40.68;100771.34;10227710;28;20183;-76
2022/07/14 08:17:59;;;;;;;9.38;1.80;;;;;;;22.77;40.85;100757.44;10223409;28;20047;-77
2022/07/14 08:23:03;;;;;;;8.10;1.70;;;;;;;23.60;39.44;100758.56;10240717;28;20393;-76
2022/07/14 08:28:07;;;;;;;8.60;1.55;;;;;;;23.94;38.81;100739.56;10231067;28;20202;-77
2022/07/14 08:33:10;;;;;;;7.50;1.77;;;;;;;23.96;38.35;100737.47;10221258;28;20517;-77
2022/07/14 08:38:12;;;;;;;6.20;1.40;;;;;;;24.00;38.33;100734.13;10234351;28;20528;-77
2022/07/14 08:43:18;;;;;;;5.50;1.25;;;;;;;22.92;38.74;100732.72;10244706;28;20070;-77
2022/07/14 08:48:20;;;;;;;5.22;1.08;;;;;;;21.25;39.45;100727.03;10249711;28;20153;-77
2022/07/14 08:53:24;;;;;;;6.57;1.23;;;;;;;21.65;40.16;100733.13;10236148;28;20090;-76
2022/07/14 08:58:29;;;;;;;6.55;1.52;;;;;;;22.07;39.77;100732.44;10218961;28;20062;-77
2022/07/14 09:03:31;;;;;;;6.15;1.48;;;;;;;22.70;39.33;100730.00;10219769;28;20109;-77
2022/07/14 09:08:56;;;;;;;6.32;1.40;;;;;;;22.66;39.52;100739.66;10231657;28;20055;-77
2022/07/14 09:14:10;;;;;;;7.90;1.67;;;;;;;23.50;37.74;100724.31;10217863;28;20051;-77
2022/07/14 09:19:15;;;;;;;6.32;2.17;;;;;;;23.28;38.44;100721.66;10224795;28;20108;-77
2022/07/14 09:24:18;;;;;;;7.72;1.27;;;;;;;24.43;37.34;100730.28;10235063;28;20055;-78
2022/07/14 09:29:27;;;;;;;6.07;1.33;;;;;;;24.00;37.72;100714.09;10216960;28;20078;-77
2022/07/14 09:34:31;;;;;;;5.22;1.20;;;;;;;21.81;39.73;100724.75;10227476;28;20047;-77
2022/07/14 09:39:57;;;;;;;3.83;1.08;;;;;;;23.11;38.23;100726.59;10232352;28;20416;-78
2022/07/14 09:45:10;;;;;;;5.93;1.10;;;;;;;23.24;36.14;100719.53;10215222;28;20157;-77
2022/07/14 09:50:13;;;;;;;4.78;1.52;;;;;;;23.81;37.04;100716.53;10246732;28;20070;-78
2022/07/14 09:55:25;;;;;;;2.85;1.10;;;;;;;24.44;35.12;100713.59;10257216;28;20086;-78
2022/07/14 10:00:30;;;;;;;3.47;1.58;;;;;;;25.04;35.04;100710.94;10249393;28;20050;-78
2022/07/14 10:05:34;;;;;;;8.02;1.02;;;;;;;24.26;36.10;100705.06;10234267;28;20057;-77
2022/07/14 10:10:37;;;;;;;5.63;1.05;;;;;;;24.14;35.27;100707.59;10237945;28;21517;-77
2022/07/14 10:15:41;;;;;;;5.85;1.15;;;;;;;24.09;35.31;100694.47;10248193;28;20094;-77
2022/07/14 10:20:46;;;;;;;5.10;1.30;;;;;;;23.45;36.46;100694.78;10235893;28;20067;-77
2022/07/14 10:25:51;;;;;;;4.57;1.10;;;;;;;25.17;35.00;100694.41;10227418;28;21509;-77
2022/07/14 10:31:06;;;;;;;7.53;1.58;;;;;;;25.28;34.76;100689.34;10219387;28;20087;-77
2022/07/14 10:36:18;;;;;;;4.05;1.05;;;;;;;25.45;35.28;100690.56;10236912;28;20062;-77
2022/07/14 10:41:41;;;;;;;5.80;1.00;;;;;;;24.07;34.79;100684.75;10232470;28;20055;-77
2022/07/14 10:46:47;;;;;;;3.72;1.20;;;;;;;25.43;32.34;100670.69;10224917;28;20047;-77
2022/07/14 10:51:52;;;;;;;5.22;1.10;;;;;;;25.90;32.04;100670.56;10235084;28;20133;-78
2022/07/14 10:57:10;;;;;;;4.57;1.83;;;;;;;25.85;32.84;100669.28;10227416;28;20110;-78
2022/07/14 11:02:35;;;;;;;4.30;2.05;;;;;;;26.62;31.86;100668.44;10229306;28;20083;-77
2022/07/14 11:07:42;;;;;;;6.68;1.70;;;;;;;23.93;34.16;100670.16;10234187;28;21239;-77
2022/07/14 11:13:09;;;;;;;4.03;1.75;;;;;;;25.00;34.69;100670.31;10235113;28;20548;-77
2022/07/14 11:18:27;;;;;;;6.22;1.73;;;;;;;26.76;32.73;100670.00;10246211;28;21359;-77
2022/07/14 11:23:33;;;;;;;6.95;1.60;;;;;;;25.35;33.57;100668.19;10233782;28;20149;-77
2022/07/14 11:28:42;;;;;;;7.22;1.75;;;;;;;25.91;32.28;100666.72;10220516;28;20752;-77
2022/07/14 11:39:22;;;;;;;5.68;1.25;;;;;;;26.97;31.30;100670.72;10243313;28;20503;-80
2022/07/14 11:44:51;;;;;;;7.63;1.45;;;;;;;26.59;31.31;100668.88;10230094;28;20050;-78
2022/07/14 11:49:58;;;;;;;3.20;0.95;;;;;;;24.75;33.02;100658.06;10234607;28;20047;-77
2022/07/14 11:55:13;;;;;;;5.90;1.35;;;;;;;26.25;31.72;100655.34;10238733;28;20047;-79
2022/07/14 12:00:17;;;;;;;4.88;1.20;;;;;;;26.46;31.09;100656.88;10279808;28;20055;-78
2022/07/14 12:05:23;;;;;;;6.25;1.48;;;;;;;27.29;31.84;100643.88;10261953;28;20062;-78
2022/07/14 12:10:37;;;;;;;3.10;0.93;;;;;;;28.46;30.15;100629.81;10251133;28;20055;-78
2022/07/14 12:15:40;;;;;;;2.63;1.00;;;;;;;27.14;28.99;100647.00;10242542;28;20063;-78
2022/07/14 12:20:47;;;;;;;6.63;1.27;;;;;;;28.62;28.39;100640.22;10256887;28;20043;-78
2022/07/14 12:25:50;;;;;;;7.15;1.40;;;;;;;29.85;27.29;100623.66;10245526;28;21090;-79
2022/07/14 12:30:55;;;;;;;4.63;1.10;;;;;;;29.67;28.38;100624.66;10238874;28;20047;-79
2022/07/14 12:36:01;;;;;;;3.30;0.85;;;;;;;30.61;26.15;100609.53;10246556;28;20115;-78
2022/07/14 12:41:05;;;;;;;4.43;0.77;;;;;;;30.11;26.66;100600.03;10264604;28;20579;-78
2022/07/14 12:46:10;;;;;;;2.97;0.80;;;;;;;29.28;28.06;100596.72;10257415;28;20567;-78
2022/07/14 12:51:23;;;;;;;4.78;1.13;;;;;;;29.10;28.63;100592.19;10226770;28;20058;-80
2022/07/14 12:56:26;;;;;;;4.53;1.10;;;;;;;28.37;28.65;100604.47;10237702;28;20062;-78
2022/07/14 13:01:30;;;;;;;2.80;0.85;;;;;;;28.96;28.91;100610.06;10241253;28;20713;-81
2022/07/14 13:06:44;;;;;;;4.97;1.20;;;;;;;28.32;29.82;100611.78;10255378;28;20711;-78
2022/07/14 13:11:47;;;;;;;5.75;1.20;;;;;;;27.42;29.92;100613.41;10260134;28;20670;-78
2022/07/14 13:16:50;;;;;;;6.60;1.48;;;;;;;26.76;30.55;100622.34;10248894;28;20050;-79
2022/07/14 13:22:04;;;;;;;2.75;1.17;;;;;;;25.22;31.86;100626.97;10252056;28;20050;-76
2022/07/14 13:27:09;;;;;;;6.05;1.15;;;;;;;25.70;30.84;100629.38;10284868;28;20064;-77
2022/07/14 13:32:20;;;;;;;4.63;1.15;;;;;;;26.34;31.46;100622.88;10260171;28;20517;-78
2022/07/14 13:37:24;;;;;;;3.80;1.15;;;;;;;26.49;31.23;100639.94;10265188;28;20051;-79
2022/07/14 13:42:27;;;;;;;6.28;1.10;;;;;;;25.70;31.63;100643.13;10273951;28;20113;-78
2022/07/14 13:47:29;;;;;;;2.97;0.82;;;;;;;26.08;30.71;100641.25;10265964;28;20058;-77
2022/07/14 13:52:34;;;;;;;2.72;1.00;;;;;;;26.41;30.88;100642.97;10230066;28;20556;-77
2022/07/14 13:57:40;;;;;;;2.35;0.50;;;;;;;26.73;30.52;100651.19;10233811;28;20754;-75
2022/07/14 14:08:09;;;;;;;1.25;0.60;;;;;;;26.37;30.53;100662.91;10230163;28;20536;-77
2022/07/14 14:13:13;;;;;;;3.50;1.00;;;;;;;25.86;31.63;100661.88;10214308;28;20055;-77
2022/07/14 14:18:16;;;;;;;3.30;1.05;;;;;;;27.42;30.47;100662.22;10231372;28;20102;-76
2022/07/14 14:23:21;;;;;;;4.00;0.73;;;;;;;28.24;29.00;100657.16;10228685;28;20122;-76
2022/07/14 14:28:24;;;;;;;4.03;1.00;;;;;;;29.03;27.86;100652.25;10218111;28;20059;-76
2022/07/14 14:33:28;;;;;;;2.35;0.73;;;;;;;26.30;29.98;100649.16;10237967;28;20428;-75
2022/07/14 14:38:34;;;;;;;5.50;0.68;;;;;;;25.89;31.73;100658.72;10234393;28;20528;-78
2022/07/14 14:43:37;;;;;;;5.50;0.70;;;;;;;25.67;30.77;100662.81;10224791;28;20051;-77
2022/07/14 14:48:40;;;;;;;2.40;0.50;;;;;;;26.41;29.98;100656.75;10234922;28;20086;-77
2022/07/14 14:53:44;;;;;;;2.47;0.70;;;;;;;28.04;28.75;100666.56;10235026;28;20478;-77
2022/07/14 14:58:47;;;;;;;0.55;0.40;;;;;;;28.35;25.89;100663.78;10253743;28;20039;-78
2022/07/14 15:03:50;;;;;;;2.05;0.40;;;;;;;28.29;26.27;100668.34;10240711;28;20042;-79
2022/07/14 15:08:55;;;;;;;0.77;0.35;;;;;;;27.97;25.70;100667.72;10245789;28;20097;-79
2022/07/14 15:13:57;;;;;;;3.15;0.50;;;;;;;27.04;26.93;100661.34;10214457;28;20062;-79
2022/07/14 15:19:01;;;;;;;2.10;0.40;;;;;;;27.01;26.76;100659.00;10235881;28;20051;-79
2022/07/14 15:24:06;;;;;;;2.70;0.60;;;;;;;27.61;26.17;100664.75;10227289;28;20125;-80
2022/07/14 15:29:09;;;;;;;4.75;0.50;;;;;;;27.12;27.78;100672.03;10224874;28;20055;-79
2022/07/14 15:34:12;;;;;;;5.13;0.40;;;;;;;27.84;27.33;100671.50;10251441;28;20051;-79
2022/07/14 15:44:42;;;;;;;0.95;0.50;;;;;;;27.73;27.29;100658.44;10292586;28;20423;-78
2022/07/14 15:49:46;;;;;;;1.30;0.50;;;;;;;26.92;27.44;100646.59;10255882;28;20726;-79
2022/07/14 15:54:50;;;;;;;1.90;0.85;;;;;;;24.82;30.59;100668.19;10233204;28;20043;-79
2022/07/14 15:59:53;;;;;;;2.17;0.60;;;;;;;23.92;32.30;100675.84;10234729;28;20066;-79
2022/07/14 16:04:56;;;;;;;1.08;0.40;;;;;;;24.35;33.70;100679.13;10247811;28;20053;-78
2022/07/14 16:10:01;;;;;;;4.38;0.75;;;;;;;24.78;34.05;100681.53;10258403;28;20054;-79
2022/07/14 16:15:04;;;;;;;4.10;0.75;;;;;;;24.64;34.84;100680.69;10257935;28;20504;-79
2022/07/14 16:20:09;;;;;;;1.08;0.60;;;;;;;23.90;35.81;100688.91;10244012;28;20054;-79
2022/07/14 16:25:14;;;;;;;5.20;0.70;;;;;;;23.15;37.65;100692.28;10246473;28;20532;-79
2022/07/14 16:30:18;;;;;;;3.30;0.50;;;;;;;23.29;36.81;100692.38;10238089;28;20500;-79
2022/07/14 16:35:21;;;;;;;2.35;0.77;;;;;;;22.85;36.72;100693.50;10247498;28;20066;-79
2022/07/14 16:40:25;;;;;;;1.33;0.30;;;;;;;22.50;37.41;100693.38;10232750;28;20059;-79
2022/07/14 16:45:31;;;;;;;3.78;0.85;;;;;;;22.29;37.77;100689.53;10230393;28;20051;-80
2022/07/14 16:50:34;;;;;;;2.38;0.70;;;;;;;21.63;38.04;100685.97;10240796;28;20213;-78
2022/07/14 16:55:38;;;;;;;1.23;0.65;;;;;;;22.01;38.31;100688.59;10229889;28;20139;-79
2022/07/14 17:00:41;;;;;;;5.13;0.73;;;;;;;22.32;37.31;100688.31;10232182;28;20587;-79
2022/07/14 17:11:06;;;;;;;5.88;0.80;;;;;;;21.79;38.45;100676.75;10219704;28;20043;-79
2022/07/14 17:16:10;;;;;;;2.88;0.65;;;;;;;21.58;38.22;100685.69;10232493;28;20047;-79
2022/07/14 17:21:22;;;;;;;2.45;0.73;;;;;;;21.63;38.83;100670.41;10246943;28;20137;-80
2022/07/14 17:26:26;;;;;;;1.45;0.63;;;;;;;22.31;38.05;100673.78;10257317;28;20054;-79
2022/07/14 17:31:29;;;;;;;5.70;0.68;;;;;;;28.30;30.41;100658.13;10247871;28;20211;-79
2022/07/14 17:36:32;;;;;;;3.15;0.80;;;;;;;27.40;29.93;100668.00;10242908;28;20178;-79
2022/07/14 17:41:36;;;;;;;1.88;0.60;;;;;;;30.08;27.77;100663.38;10241157;28;20542;-79
2022/07/14 17:46:39;;;;;;;1.42;0.82;;;;;;;31.94;25.79;100659.41;10260492;28;20087;-77
2022/07/14 17:57:04;;;;;;;1.70;0.50;;;;;;;28.75;27.77;100671.50;10223516;28;20046;-77
2022/07/14 18:02:07;;;;;;;2.25;0.73;;;;;;;23.84;34.30;100683.19;10239798;28;20055;-77
2022/07/14 18:07:10;;;;;;;2.20;0.77;;;;;;;22.40;37.78;100685.44;10233593;28;20123;-77
2022/07/14 18:12:15;;;;;;;6.20;0.80;;;;;;;21.95;38.20;100687.47;10220987;28;20057;-77
2022/07/14 18:17:18;;;;;;;2.13;0.60;;;;;;;21.98;38.58;100694.47;10233568;28;20047;-76
2022/07/14 18:22:21;;;;;;;1.20;0.55;;;;;;;21.68;38.62;100698.03;10232090;28;20109;-77
2022/07/14 18:27:26;;;;;;;2.67;0.75;;;;;;;21.64;39.70;100696.75;10215108;28;20089;-77
2022/07/14 18:32:28;;;;;;;4.15;0.90;;;;;;;21.38;39.86;100696.34;10228290;28;20161;-77
2022/07/14 18:37:36;;;;;;;3.67;1.00;;;;;;;21.02;39.93;100697.88;10243251;28;20086;-76
2022/07/14 18:42:41;;;;;;;2.67;0.88;;;;;;;20.97;39.97;100702.22;10215771;28;20186;-76
2022/07/14 18:47:44;;;;;;;1.40;0.85;;;;;;;20.38;40.75;100707.44;10228470;28;20201;-76
2022/07/14 18:52:46;;;;;;;2.53;0.60;;;;;;;20.17;41.60;100706.19;10217345;28;20107;-76
2022/07/14 18:57:51;;;;;;;5.28;1.33;;;;;;;20.06;42.07;100712.06;10217137;28;20059;-76
2022/07/14 19:02:54;;;;;;;1.73;0.77;;;;;;;20.02;42.04;100711.56;10232749;28;20409;-76
2022/07/14 19:07:58;;;;;;;3.85;0.90;;;;;;;19.94;42.94;100722.53;10247394;28;20046;-74
2022/07/14 19:13:03;;;;;;;3.20;0.90;;;;;;;19.78;43.27;100728.03;10251377;28;20051;-76
2022/07/14 19:18:07;;;;;;;2.33;0.77;;;;;;;19.76;43.85;100730.94;10239175;28;20091;-77
2022/07/14 19:23:11;;;;;;;2.08;0.85;;;;;;;19.74;44.66;100729.41;10223610;28;20044;-76
2022/07/14 19:28:15;;;;;;;1.60;0.77;;;;;;;19.64;44.37;100733.19;10238185;28;20061;-76
2022/07/14 19:33:18;;;;;;;3.15;0.80;;;;;;;19.50;44.65;100747.53;10240627;28;20059;-76
2022/07/14 19:38:21;;;;;;;2.35;0.85;;;;;;;19.41;45.14;100746.66;10252564;28;20078;-76
2022/07/14 19:43:26;;;;;;;3.83;0.80;;;;;;;19.23;45.73;100746.88;10226334;28;20050;-76
2022/07/14 19:48:28;;;;;;;2.67;0.90;;;;;;;19.30;45.99;100740.72;10251992;28;20105;-80
2022/07/14 19:53:31;;;;;;;2.20;0.85;;;;;;;19.29;45.74;100733.59;10248794;28;20196;-80
2022/07/14 19:58:36;;;;;;;2.72;1.20;;;;;;;19.23;45.72;100746.03;10280432;28;20126;-81
2022/07/14 20:03:38;;;;;;;1.48;0.70;;;;;;;19.24;46.13;100756.75;10267900;28;20050;-81
2022/07/14 20:08:42;;;;;;;4.40;1.02;;;;;;;19.19;46.94;100766.44;10254789;28;20054;-80
2022/07/14 20:13:46;;;;;;;2.95;0.98;;;;;;;18.92;47.56;100784.81;10269642;28;20051;-81
2022/07/14 20:18:49;;;;;;;3.00;1.10;;;;;;;18.72;47.96;100784.28;10261373;28;20050;-80
2022/07/14 20:24:12;;;;;;;2.67;1.08;;;;;;;18.75;48.17;100788.53;10264685;28;20054;-81
2022/07/14 20:34:37;;;;;;;2.65;1.00;;;;;;;18.70;48.90;100783.56;10253926;28;20050;-80
2022/07/14 20:39:39;;;;;;;3.75;0.90;;;;;;;18.77;48.93;100786.50;10276014;28;20105;-80
2022/07/14 20:44:44;;;;;;;4.97;1.00;;;;;;;18.80;49.18;100784.31;10270852;28;20059;-79
2022/07/14 20:49:48;;;;;;;3.28;1.00;;;;;;;18.81;49.23;100793.31;10273540;28;20043;-81
2022/07/14 20:54:51;;;;;;;3.65;0.93;;;;;;;18.79;49.37;100798.09;10248107;28;20505;-81
2022/07/14 20:59:55;;;;;;;2.25;0.85;;;;;;;18.69;49.83;100798.22;10240657;28;20141;-81
2022/07/14 21:04:58;;;;;;;3.90;0.90;;;;;;;18.58;50.30;100798.53;10267847;28;20054;-79
2022/07/14 21:10:01;;;;;;;3.35;1.10;;;;;;;18.45;50.79;100801.72;10248209;28;20125;-80
2022/07/14 21:15:12;;;;;;;4.55;0.90;;;;;;;18.27;51.06;100818.16;10242885;28;20111;-81
2022/07/14 21:20:15;;;;;;;3.15;1.02;;;;;;;18.17;51.34;100811.16;10254152;28;20051;-80
2022/07/14 21:25:19;;;;;;;4.53;0.88;;;;;;;18.02;51.58;100809.06;10267633;28;20063;-79
2022/07/14 21:30:23;;;;;;;3.85;0.80;;;;;;;17.96;51.77;100804.22;10279971;28;20173;-79
2022/07/14 21:35:26;;;;;;;3.60;1.10;;;;;;;17.75;52.29;100814.66;10290307;28;20051;-78
2022/07/14 21:40:29;;;;;;;6.15;1.50;;;;;;;17.67;52.64;100815.47;10273516;28;20501;-79
2022/07/14 21:45:34;;;;;;;4.53;1.10;;;;;;;17.53;52.89;100814.19;10264980;28;20050;-79
2022/07/14 21:50:37;;;;;;;4.40;0.90;;;;;;;17.46;53.37;100815.81;10242592;28;20492;-80
2022/07/14 21:55:40;;;;;;;4.28;1.08;;;;;;;17.28;53.63;100815.88;10261438;28;20055;-79
2022/07/14 22:00:44;;;;;;;4.82;2.22;;;;;;;17.08;54.26;100817.84;10279574;28;20055;-79
2022/07/14 22:05:47;;;;;;;2.33;1.00;;;;;;;17.03;54.73;100818.34;10286328;28;20054;-79
2022/07/14 22:10:51;;;;;;;3.53;1.10;;;;;;;16.92;55.10;100823.13;10255000;28;20059;-79
2022/07/14 22:15:55;;;;;;;2.20;1.13;;;;;;;16.90;55.31;100814.31;10248674;28;20046;-79
2022/07/14 22:20:59;;;;;;;2.83;1.00;;;;;;;16.75;55.45;100817.56;10254905;28;20075;-80
2022/07/14 22:26:04;;;;;;;5.35;1.23;;;;;;;16.63;55.81;100817.94;10240250;28;20060;-80
2022/07/14 22:31:09;;;;;;;4.78;1.38;;;;;;;16.61;55.89;100819.97;10244742;28;20118;-80
2022/07/14 22:36:13;;;;;;;6.15;1.15;;;;;;;16.53;56.17;100827.00;10253681;28;20055;-80
2022/07/14 22:41:15;;;;;;;3.50;1.00;;;;;;;16.22;57.11;100833.72;10268200;28;20705;-78
2022/07/14 22:46:20;;;;;;;5.38;1.42;;;;;;;16.08;57.61;100826.94;10257184;28;20079;-80
2022/07/14 22:51:23;;;;;;;2.55;1.40;;;;;;;15.90;58.07;100830.41;10267864;28;20054;-80
2022/07/14 22:56:26;;;;;;;2.40;1.23;;;;;;;15.69;58.68;100836.06;10261905;28;20047;-80
2022/07/14 23:01:31;;;;;;;5.50;1.55;;;;;;;15.64;59.05;100846.47;10262918;28;20131;-80
2022/07/14 23:06:34;;;;;;;5.22;1.90;;;;;;;15.78;58.74;100844.31;10265512;28;20062;-79
2022/07/14 23:16:58;;;;;;;5.32;1.85;;;;;;;15.78;58.66;100852.44;10250749;28;20059;-80
2022/07/14 23:22:01;;;;;;;3.38;1.70;;;;;;;15.78;58.10;100847.84;10229743;28;20053;-78
2022/07/14 23:27:04;;;;;;;4.80;1.65;;;;;;;15.75;58.42;100842.75;10267248;28;20061;-78
2022/07/14 23:32:09;;;;;;;5.43;1.73;;;;;;;15.78;58.71;100841.59;10247546;28;20385;-78
2022/07/14 23:37:12;;;;;;;5.20;1.58;;;;;;;15.76;58.45;100849.84;10253726;28;20134;-78
2022/07/14 23:42:15;;;;;;;5.53;1.60;;;;;;;15.65;58.64;100853.59;10249572;28;20046;-80
2022/07/14 23:47:19;;;;;;;2.83;1.63;;;;;;;15.53;58.96;100854.75;10237074;28;20069;-79
2022/07/14 23:52:22;;;;;;;4.00;2.35;;;;;;;15.32;59.61;100854.88;10254083;28;20055;-79
2022/07/14 23:57:24;;;;;;;4.13;1.58;;;;;;;15.31;59.64;100861.31;10246759;28;20066;-80
